Time;durP1;ratioP1;P1;durP2;ratioP2;P2;SDS_P1;SDS_P2;PMS_P1;PMS_P2;Temp;Humidity;BMP_temperature;BMP_pressure;BME280_temperature;BME280_humidity;BME280_pressure;Samples;Min_cycle;Max_cycle;Signal;HPM_P1;HPM_P2
2023/09/30 00:01:10;;;;;;;12.67;11.97;;;19.30;99.90;;;;;;4869735;29;20500;-82
2023/09/30 00:04:02;;;;;;;13.60;12.80;;;19.30;99.90;;;;;;4868888;29;20529;-82
2023/09/30 00:06:40;;;;;;;13.20;12.30;;;19.30;99.90;;;;;;4873077;29;20558;-84
2023/09/30 00:09:11;;;;;;;13.70;12.60;;;19.40;99.90;;;;;;4869672;29;20532;-83
2023/09/30 00:12:04;;;;;;;13.03;12.33;;;19.30;99.90;;;;;;4869036;29;20465;-83
2023/09/30 00:14:48;;;;;;;13.43;12.57;;;19.40;99.90;;;;;;4874806;29;21002;-87
2023/09/30 00:17:22;;;;;;;12.63;11.83;;;19.30;99.90;;;;;;4878149;29;20471;-84
2023/09/30 00:20:20;;;;;;;13.03;12.37;;;19.30;99.90;;;;;;4877227;29;20451;-84
2023/09/30 00:22:49;;;;;;;12.83;12.07;;;19.30;99.90;;;;;;4875530;29;20460;-82
2023/09/30 00:25:17;;;;;;;12.03;11.40;;;19.20;99.90;;;;;;4875588;29;20506;-85
2023/09/30 00:27:48;;;;;;;11.73;11.00;;;19.30;99.90;;;;;;4877627;29;20535;-83
2023/09/30 00:30:28;;;;;;;12.67;11.77;;;19.30;99.90;;;;;;4873399;29;20472;-83
2023/09/30 00:32:56;;;;;;;13.07;12.20;;;19.30;99.90;;;;;;4874909;29;20459;-83
2023/09/30 00:35:37;;;;;;;12.63;11.93;;;19.20;99.90;;;;;;4873662;29;20464;-84
2023/09/30 00:38:17;;;;;;;13.10;12.40;;;19.10;99.90;;;;;;4877518;29;20480;-86
2023/09/30 00:41:12;;;;;;;12.40;11.67;;;19.10;99.90;;;;;;4889791;29;20559;-85
2023/09/30 00:43:47;;;;;;;11.87;11.27;;;19.20;99.90;;;;;;4876849;29;20488;-83
2023/09/30 00:46:27;;;;;;;12.47;11.67;;;19.20;99.90;;;;;;4872605;29;20461;-84
2023/09/30 00:48:56;;;;;;;12.47;11.77;;;19.10;99.90;;;;;;4873130;29;21300;-81
2023/09/30 00:51:27;;;;;;;12.97;12.13;;;19.10;99.90;;;;;;4888622;29;20975;-81
2023/09/30 00:54:13;;;;;;;12.93;12.10;;;19.10;99.90;;;;;;4887450;29;21685;-83
2023/09/30 00:57:00;;;;;;;12.23;11.43;;;19.10;99.90;;;;;;4873860;29;20464;-84
2023/09/30 00:59:48;;;;;;;11.70;11.20;;;19.10;99.90;;;;;;4873311;29;20564;-83
2023/09/30 01:02:49;;;;;;;12.43;11.70;;;19.20;99.90;;;;;;4888875;29;20711;-83
2023/09/30 01:08:34;;;;;;;12.00;11.40;;;19.10;99.90;;;;;;4874141;29;20493;-84
2023/09/30 01:11:13;;;;;;;12.10;11.30;;;19.00;99.90;;;;;;4875329;29;20470;-84
2023/09/30 01:17:14;;;;;;;12.97;12.33;;;19.00;99.90;;;;;;4874849;29;20548;-85
2023/09/30 01:20:06;;;;;;;13.43;12.63;;;19.00;99.90;;;;;;4874860;29;20493;-84
2023/09/30 01:23:35;;;;;;;12.40;11.90;;;18.90;99.90;;;;;;4875918;29;20541;-84
2023/09/30 01:26:20;;;;;;;12.33;11.63;;;18.90;99.90;;;;;;4889426;29;20492;-82
2023/09/30 01:29:11;;;;;;;12.63;11.93;;;18.90;99.90;;;;;;4877425;29;20504;-83
2023/09/30 01:31:47;;;;;;;11.83;11.30;;;18.90;99.90;;;;;;4874474;29;20486;-84
2023/09/30 01:34:21;;;;;;;13.17;12.50;;;18.80;99.90;;;;;;4874037;29;20476;-82
2023/09/30 01:36:53;;;;;;;12.43;11.83;;;18.70;99.90;;;;;;4874098;29;20471;-84
2023/09/30 01:39:23;;;;;;;12.00;11.40;;;18.70;99.90;;;;;;4873820;29;20478;-85
2023/09/30 01:41:51;;;;;;;12.40;11.80;;;18.70;99.90;;;;;;4876554;29;20465;-83
2023/09/30 01:44:21;;;;;;;12.93;12.33;;;18.60;99.90;;;;;;4874244;29;20484;-81
2023/09/30 01:47:07;;;;;;;12.70;11.90;;;18.60;99.90;;;;;;4877310;29;20460;-85
2023/09/30 01:49:46;;;;;;;12.40;11.80;;;18.50;99.90;;;;;;4874403;29;20463;-83
2023/09/30 01:52:33;;;;;;;12.20;11.40;;;18.50;99.90;;;;;;4874719;29;20464;-86
2023/09/30 01:55:28;;;;;;;12.40;11.60;;;18.50;99.90;;;;;;4871904;29;20494;-85
2023/09/30 01:58:28;;;;;;;12.70;12.10;;;18.50;99.90;;;;;;4878934;29;20464;-84
2023/09/30 02:03:58;;;;;;;13.60;12.70;;;18.40;99.90;;;;;;4873283;29;21292;-84
2023/09/30 02:06:26;;;;;;;12.87;12.10;;;18.40;99.90;;;;;;4874262;29;20476;-83
2023/09/30 02:08:55;;;;;;;12.53;11.77;;;18.30;99.90;;;;;;4874418;29;20460;-83
2023/09/30 02:11:24;;;;;;;12.83;12.10;;;18.20;99.90;;;;;;4877555;29;20460;-82
2023/09/30 02:13:52;;;;;;;13.17;12.40;;;18.20;1.00;;;;;;4872000;29;20468;-82
2023/09/30 02:16:21;;;;;;;12.47;11.70;;;18.20;1.00;;;;;;4876470;29;20451;-81
2023/09/30 02:18:50;;;;;;;12.67;11.90;;;18.20;1.00;;;;;;4876521;29;20519;-83
2023/09/30 02:21:19;;;;;;;12.50;11.80;;;18.30;1.00;;;;;;4874258;29;20470;-82
2023/09/30 02:23:48;;;;;;;12.40;11.90;;;18.30;1.00;;;;;;4873465;29;20463;-82
2023/09/30 02:26:17;;;;;;;12.43;11.83;;;18.30;1.00;;;;;;4876287;29;20496;-82
2023/09/30 02:28:46;;;;;;;13.93;13.07;;;18.30;1.00;;;;;;4874905;29;20456;-83
2023/09/30 02:31:17;;;;;;;12.57;11.97;;;18.30;1.00;;;;;;4891788;29;20487;-83
2023/09/30 02:33:45;;;;;;;13.37;12.40;;;18.30;1.00;;;;;;4872514;29;20453;-86
2023/09/30 02:36:14;;;;;;;13.30;12.60;;;18.30;1.00;;;;;;4870577;29;20485;-81
2023/09/30 02:38:43;;;;;;;12.73;12.13;;;18.30;1.00;;;;;;4874009;29;20491;-85
2023/09/30 02:41:11;;;;;;;12.57;11.87;;;18.30;1.00;;;;;;4875619;29;20466;-83
2023/09/30 02:43:40;;;;;;;12.77;12.17;;;18.40;1.00;;;;;;4872414;29;21003;-82
2023/09/30 02:46:10;;;;;;;13.03;12.33;;;18.40;1.00;;;;;;4871789;29;20513;-86
2023/09/30 02:48:38;;;;;;;12.20;11.70;;;18.40;1.00;;;;;;4874081;29;20448;-86
2023/09/30 02:51:10;;;;;;;13.60;12.80;;;18.30;1.00;;;;;;4875145;29;20556;-82
2023/09/30 02:53:39;;;;;;;12.80;12.13;;;18.30;1.00;;;;;;4874084;29;20957;-84
2023/09/30 02:56:07;;;;;;;13.37;12.30;;;18.20;1.00;;;;;;4875794;29;20483;-82
2023/09/30 02:58:35;;;;;;;12.53;11.93;;;18.20;1.00;;;;;;4873696;29;20527;-84
2023/09/30 03:01:03;;;;;;;13.57;12.77;;;18.10;1.00;;;;;;4871094;29;20460;-83
2023/09/30 03:03:33;;;;;;;12.83;12.23;;;18.10;1.00;;;;;;4871649;29;20484;-81
2023/09/30 03:06:02;;;;;;;13.27;12.53;;;18.10;1.00;;;;;;4883271;29;21266;-83
2023/09/30 03:08:30;;;;;;;12.50;11.90;;;18.10;1.00;;;;;;4871996;29;20547;-85
2023/09/30 03:10:58;;;;;;;13.23;12.57;;;18.10;1.00;;;;;;4873097;29;20452;-85
2023/09/30 03:13:26;;;;;;;13.87;13.07;;;18.10;1.00;;;;;;4874791;29;20456;-83
2023/09/30 03:15:56;;;;;;;13.07;12.33;;;18.00;1.00;;;;;;4872503;29;20480;-81
2023/09/30 03:18:26;;;;;;;12.70;12.20;;;18.10;1.00;;;;;;4888816;29;20475;-84
2023/09/30 03:21:01;;;;;;;13.63;13.00;;;18.10;1.00;;;;;;4876213;29;20472;-84
2023/09/30 03:23:30;;;;;;;13.93;13.17;;;18.10;1.00;;;;;;4876519;29;20495;-82
2023/09/30 03:25:59;;;;;;;12.80;12.20;;;18.20;1.00;;;;;;4888163;29;21063;-83
2023/09/30 03:28:27;;;;;;;13.20;12.50;;;18.20;1.00;;;;;;4875203;29;20466;-83
2023/09/30 03:30:56;;;;;;;13.80;13.17;;;18.20;1.00;;;;;;4874114;29;20468;-83
2023/09/30 03:33:26;;;;;;;12.77;12.17;;;18.20;1.00;;;;;;4872730;29;20872;-83
2023/09/30 03:36:03;;;;;;;13.17;12.60;;;18.20;1.00;;;;;;4871244;29;20474;-87
2023/09/30 03:38:32;;;;;;;12.90;12.30;;;18.20;1.00;;;;;;4872519;29;20463;-82
2023/09/30 03:41:01;;;;;;;13.80;13.10;;;18.10;1.00;;;;;;4874391;29;20476;-85
2023/09/30 03:43:29;;;;;;;13.53;12.87;;;18.10;1.00;;;;;;4876697;29;20542;-83
2023/09/30 03:45:57;;;;;;;13.87;13.10;;;18.10;1.00;;;;;;4886576;29;20555;-81
2023/09/30 03:48:26;;;;;;;13.93;13.23;;;18.10;1.00;;;;;;4875539;29;20492;-82
2023/09/30 03:50:56;;;;;;;13.77;12.90;;;18.10;1.00;;;;;;4873999;29;20473;-82
2023/09/30 03:53:26;;;;;;;13.33;12.53;;;18.10;1.00;;;;;;4874954;29;20473;-81
2023/09/30 03:55:55;;;;;;;12.60;12.10;;;18.10;1.00;;;;;;4873339;29;20480;-81
2023/09/30 03:58:23;;;;;;;13.50;12.80;;;18.10;1.00;;;;;;4876825;29;20448;-83
2023/09/30 04:00:51;;;;;;;13.33;12.63;;;18.20;1.00;;;;;;4873899;29;20471;-83
2023/09/30 04:03:20;;;;;;;12.70;12.00;;;18.20;1.00;;;;;;4876324;29;20472;-84
2023/09/30 04:05:50;;;;;;;13.13;12.50;;;18.10;1.00;;;;;;4871230;29;20492;-81
2023/09/30 04:08:22;;;;;;;12.97;12.20;;;18.10;1.00;;;;;;4877822;29;20543;-81
2023/09/30 04:10:50;;;;;;;12.93;12.33;;;18.10;1.00;;;;;;4875423;29;20472;-83
2023/09/30 04:13:20;;;;;;;12.90;12.10;;;18.10;1.00;;;;;;4875969;29;20479;-83
2023/09/30 04:15:49;;;;;;;13.10;12.30;;;18.10;1.00;;;;;;4871623;29;20480;-83
2023/09/30 04:18:20;;;;;;;13.20;12.60;;;18.10;1.00;;;;;;4875133;29;20877;-84
2023/09/30 04:20:48;;;;;;;13.07;12.50;;;18.10;1.00;;;;;;4873271;29;20475;-85
2023/09/30 04:23:16;;;;;;;13.23;12.57;;;18.10;1.00;;;;;;4892975;29;20540;-83
2023/09/30 04:25:46;;;;;;;14.33;13.43;;;18.10;1.00;;;;;;4872185;29;20733;-82
2023/09/30 04:28:15;;;;;;;14.07;13.30;;;18.00;1.00;;;;;;4875874;29;20461;-83
2023/09/30 04:30:48;;;;;;;13.70;12.80;;;18.00;6.30;;;;;;4877235;29;20489;-86
2023/09/30 04:33:25;;;;;;;12.90;12.40;;;17.90;20.70;;;;;;4875358;29;20464;-82
2023/09/30 04:35:53;;;;;;;13.90;13.00;;;18.00;25.90;;;;;;4874871;29;20857;-83
2023/09/30 04:38:21;;;;;;;12.80;12.40;;;18.00;15.90;;;;;;4876619;29;20447;-84
2023/09/30 04:40:51;;;;;;;13.60;13.00;;;17.90;44.40;;;;;;4875456;29;20460;-82
2023/09/30 04:43:20;;;;;;;13.20;12.50;;;17.90;59.40;;;;;;4876386;29;20471;-85
2023/09/30 04:45:52;;;;;;;13.43;12.60;;;18.00;37.20;;;;;;4877592;29;20501;-83
2023/09/30 04:48:22;;;;;;;12.70;12.10;;;17.90;36.00;;;;;;4876596;29;20468;-84
2023/09/30 04:50:51;;;;;;;13.50;12.77;;;17.90;84.40;;;;;;4876476;29;20978;-83
2023/09/30 04:53:19;;;;;;;13.10;12.40;;;17.90;97.20;;;;;;4876100;29;20550;-84
2023/09/30 04:55:49;;;;;;;14.27;13.40;;;17.90;59.50;;;;;;4874679;29;20553;-82
2023/09/30 04:58:24;;;;;;;12.73;12.13;;;17.90;52.90;;;;;;4873300;29;20474;-81
2023/09/30 05:00:53;;;;;;;13.30;12.50;;;17.90;59.80;;;;;;4875373;29;20472;-86
2023/09/30 05:03:21;;;;;;;13.40;12.70;;;17.90;96.90;;;;;;4872053;29;20966;-83
2023/09/30 05:05:50;;;;;;;14.10;13.33;;;17.90;86.90;;;;;;4874916;29;20527;-84
2023/09/30 05:08:18;;;;;;;12.60;12.10;;;17.90;65.50;;;;;;4876945;29;20537;-87
2023/09/30 05:10:48;;;;;;;13.33;12.77;;;17.90;59.40;;;;;;4876189;29;20452;-82
2023/09/30 05:13:17;;;;;;;12.97;12.40;;;17.90;99.40;;;;;;4879099;29;20492;-83
2023/09/30 05:15:47;;;;;;;13.97;13.27;;;17.90;79.80;;;;;;4876188;29;20472;-83
2023/09/30 05:18:15;;;;;;;14.33;13.53;;;17.90;91.80;;;;;;4872380;29;21274;-84
2023/09/30 05:20:43;;;;;;;14.17;13.37;;;17.80;97.80;;;;;;4871673;29;20460;-83
2023/09/30 05:23:14;;;;;;;13.70;13.00;;;17.80;99.90;;;;;;4875958;29;20479;-83
2023/09/30 05:25:43;;;;;;;14.07;13.40;;;17.90;99.90;;;;;;4874138;29;21361;-82
2023/09/30 05:28:11;;;;;;;13.63;13.03;;;17.80;95.40;;;;;;4876630;29;20487;-81
2023/09/30 05:30:40;;;;;;;14.23;13.53;;;17.80;99.90;;;;;;4870715;29;20461;-83
2023/09/30 05:33:14;;;;;;;14.30;13.40;;;17.80;92.60;;;;;;4871809;29;20461;-84
2023/09/30 05:35:42;;;;;;;14.57;13.63;;;17.80;99.90;;;;;;4875960;29;20584;-83
2023/09/30 05:38:12;;;;;;;14.00;13.20;;;17.70;99.90;;;;;;4874837;29;20543;-82
2023/09/30 05:40:41;;;;;;;14.20;13.50;;;17.70;99.90;;;;;;4875522;29;20516;-85
2023/09/30 05:43:13;;;;;;;14.40;13.70;;;17.60;99.90;;;;;;4875967;29;20464;-83
2023/09/30 05:45:48;;;;;;;13.60;12.90;;;17.70;99.90;;;;;;4869003;29;20603;-81
2023/09/30 05:48:19;;;;;;;13.87;13.27;;;17.70;94.20;;;;;;4875236;29;20483;-83
2023/09/30 05:50:47;;;;;;;13.50;12.73;;;17.70;80.50;;;;;;4890685;29;21084;-84
2023/09/30 05:53:15;;;;;;;13.63;13.03;;;17.80;91.80;;;;;;4871886;29;20989;-83
2023/09/30 05:55:45;;;;;;;13.83;13.20;;;17.70;97.00;;;;;;4876480;29;20499;-84
2023/09/30 05:58:15;;;;;;;13.70;13.20;;;17.70;99.70;;;;;;4875075;29;20460;-84
2023/09/30 06:00:44;;;;;;;14.20;13.33;;;17.70;99.90;;;;;;4876285;29;20460;-83
2023/09/30 06:03:12;;;;;;;13.70;13.10;;;17.70;99.90;;;;;;4872889;29;20468;-81
2023/09/30 06:05:43;;;;;;;14.80;13.73;;;17.70;99.90;;;;;;4872232;29;20475;-86
2023/09/30 06:08:13;;;;;;;14.10;13.20;;;17.70;99.90;;;;;;4874442;29;20786;-84
2023/09/30 06:10:55;;;;;;;14.43;13.50;;;17.70;99.90;;;;;;4874921;29;20469;-83
2023/09/30 06:13:23;;;;;;;14.10;13.20;;;17.80;99.90;;;;;;4875881;29;20468;-82
2023/09/30 06:15:59;;;;;;;14.03;13.43;;;17.80;99.90;;;;;;4872453;29;20575;-83
2023/09/30 06:18:27;;;;;;;14.20;13.23;;;17.80;99.90;;;;;;4868281;29;20472;-85
2023/09/30 06:21:00;;;;;;;13.90;13.20;;;17.80;99.90;;;;;;4876002;29;20524;-82
2023/09/30 06:23:29;;;;;;;14.60;13.40;;;17.80;99.90;;;;;;4869919;29;21157;-82
2023/09/30 06:25:57;;;;;;;14.00;13.00;;;17.80;99.90;;;;;;4879704;29;20714;-75
2023/09/30 06:28:28;;;;;;;14.10;13.40;;;17.80;99.90;;;;;;4862837;29;20491;-75
2023/09/30 06:30:56;;;;;;;13.63;13.00;;;17.80;99.90;;;;;;4865069;29;20453;-76
2023/09/30 06:33:25;;;;;;;14.10;13.37;;;17.80;99.90;;;;;;4865455;29;20865;-77
2023/09/30 06:35:53;;;;;;;13.47;12.70;;;17.80;99.90;;;;;;4862407;29;20926;-76
2023/09/30 06:38:22;;;;;;;14.17;13.40;;;17.80;99.90;;;;;;4865293;29;20456;-75
2023/09/30 06:40:50;;;;;;;14.30;13.53;;;17.70;99.90;;;;;;4861079;29;20465;-75
2023/09/30 06:43:19;;;;;;;14.90;14.10;;;17.70;99.90;;;;;;4864777;29;20476;-76
2023/09/30 06:45:48;;;;;;;14.23;13.33;;;17.80;99.90;;;;;;4862354;29;20547;-76
2023/09/30 06:48:17;;;;;;;13.93;13.30;;;17.80;99.90;;;;;;4858830;29;20491;-76
2023/09/30 06:50:48;;;;;;;14.40;13.80;;;17.80;99.90;;;;;;4863123;29;20994;-76
2023/09/30 06:53:16;;;;;;;14.20;13.50;;;17.70;99.90;;;;;;4863357;29;20468;-75
2023/09/30 06:55:46;;;;;;;14.43;13.80;;;17.80;99.90;;;;;;4862572;29;20476;-75
2023/09/30 06:58:18;;;;;;;15.53;14.53;;;17.80;99.90;;;;;;4864068;29;20463;-76
2023/09/30 07:00:46;;;;;;;14.40;13.77;;;17.90;99.90;;;;;;4860855;29;21026;-75
2023/09/30 07:03:15;;;;;;;16.13;15.20;;;17.90;99.90;;;;;;4863853;29;20470;-75
2023/09/30 07:05:43;;;;;;;15.73;14.67;;;17.90;99.90;;;;;;4862508;29;20505;-76
2023/09/30 07:08:11;;;;;;;14.67;13.97;;;17.90;99.90;;;;;;4861694;29;20529;-76
2023/09/30 07:10:39;;;;;;;14.63;13.73;;;18.00;99.90;;;;;;4862469;29;20467;-75
2023/09/30 07:13:08;;;;;;;14.80;14.20;;;18.10;99.90;;;;;;4864117;29;20460;-76
2023/09/30 07:15:37;;;;;;;15.00;14.10;;;18.20;52.90;;;;;;4862816;29;20485;-76
2023/09/30 07:18:05;;;;;;;15.70;14.60;;;18.20;77.00;;;;;;4864821;29;20461;-75
2023/09/30 07:20:33;;;;;;;15.17;14.20;;;18.30;17.90;;;;;;4863251;29;21010;-75
2023/09/30 07:23:03;;;;;;;16.00;15.10;;;18.30;1.00;;;;;;4863886;29;20476;-75
2023/09/30 07:25:46;;;;;;;15.57;14.67;;;18.30;1.00;;;;;;4863380;29;20491;-76
2023/09/30 07:28:15;;;;;;;16.40;15.50;;;18.30;1.00;;;;;;4864426;29;20549;-76
2023/09/30 07:30:45;;;;;;;15.40;14.70;;;18.50;1.00;;;;;;4863858;29;20468;-76
2023/09/30 07:33:13;;;;;;;15.67;14.77;;;18.50;1.00;;;;;;4861580;29;20492;-76
2023/09/30 07:35:41;;;;;;;16.10;15.13;;;18.60;1.00;;;;;;4865578;29;21010;-76
2023/09/30 07:38:09;;;;;;;16.17;15.27;;;18.70;1.00;;;;;;4868875;29;21021;-77
2023/09/30 07:40:37;;;;;;;16.87;15.87;;;18.70;1.00;;;;;;4865484;29;20456;-75
2023/09/30 07:43:05;;;;;;;16.47;15.57;;;18.80;1.00;;;;;;4864192;29;20982;-77
2023/09/30 07:45:35;;;;;;;16.00;15.30;;;18.90;1.00;;;;;;4865814;29;20498;-81
2023/09/30 07:48:10;;;;;;;16.33;15.43;;;19.00;1.00;;;;;;4871688;29;20492;-81
2023/09/30 07:50:56;;;;;;;15.77;14.83;;;19.10;1.00;;;;;;4869391;29;20903;-81
2023/09/30 07:54:13;;;;;;;15.70;14.93;;;19.10;1.00;;;;;;4868204;29;20492;-83
2023/09/30 07:57:23;;;;;;;15.87;14.93;;;19.00;1.00;;;;;;4816948;29;20566;-82
2023/09/30 08:03:46;;;;;;;16.30;15.40;;;19.30;1.00;;;;;;4816491;29;20984;-83
2023/09/30 08:06:15;;;;;;;16.87;15.83;;;19.40;99.90;;;;;;4800706;29;20223;-86
2023/09/30 08:08:44;;;;;;;16.17;15.10;;;19.40;1.00;;;;;;4796362;29;20488;-82
2023/09/30 08:11:15;;;;;;;16.00;15.30;;;19.60;99.90;;;;;;4791793;29;20474;-83
2023/09/30 08:13:43;;;;;;;15.13;14.30;;;19.90;99.90;;;;;;4793912;29;20561;-84
2023/09/30 08:16:11;;;;;;;15.93;15.10;;;20.00;99.90;;;;;;4792415;29;20484;-83
2023/09/30 08:18:40;;;;;;;15.57;14.70;;;20.10;99.90;;;;;;4792111;29;20974;-82
2023/09/30 08:21:12;;;;;;;15.30;14.60;;;20.00;99.90;;;;;;4788405;29;20575;-82
2023/09/30 08:23:40;;;;;;;15.93;15.13;;;19.90;99.90;;;;;;4792934;29;20463;-81
2023/09/30 08:26:08;;;;;;;15.37;14.70;;;19.90;99.90;;;;;;4786718;29;20497;-82
2023/09/30 08:28:38;;;;;;;14.70;13.90;;;19.80;99.90;;;;;;4791353;29;20491;-81
2023/09/30 08:31:09;;;;;;;15.90;14.90;;;19.70;99.90;;;;;;4791834;29;20467;-84
2023/09/30 08:33:40;;;;;;;15.10;14.40;;;19.80;99.90;;;;;;4791489;29;20468;-79
2023/09/30 08:36:09;;;;;;;15.60;14.93;;;19.70;99.90;;;;;;4795382;29;20492;-80
2023/09/30 08:38:41;;;;;;;15.13;14.43;;;19.70;99.90;;;;;;4795125;29;20962;-80
2023/09/30 08:41:10;;;;;;;15.60;14.83;;;19.60;99.90;;;;;;4795287;29;20552;-82
2023/09/30 08:43:40;;;;;;;15.90;15.10;;;19.50;99.90;;;;;;4795067;29;20468;-80
2023/09/30 08:46:08;;;;;;;14.87;14.07;;;19.60;99.90;;;;;;4792669;29;20481;-79
2023/09/30 08:48:37;;;;;;;15.80;14.77;;;20.00;99.90;;;;;;4795628;29;20523;-81
2023/09/30 08:51:05;;;;;;;17.30;16.03;;;20.60;99.90;;;;;;4794027;29;20507;-79
2023/09/30 08:53:33;;;;;;;15.50;14.70;;;21.10;99.90;;;;;;4791986;29;20473;-82
2023/09/30 08:56:09;;;;;;;15.50;14.70;;;21.20;99.90;;;;;;4790737;29;20580;-80
2023/09/30 08:58:38;;;;;;;16.30;15.40;;;21.70;99.90;;;;;;4796080;29;20459;-82
2023/09/30 09:01:09;;;;;;;16.20;15.30;;;22.40;99.90;;;;;;4794075;29;20518;-80
2023/09/30 09:03:38;;;;;;;15.20;14.50;;;22.90;99.90;;;;;;4796009;29;20534;-79
2023/09/30 09:06:07;;;;;;;16.27;15.27;;;23.30;99.90;;;;;;4792774;29;20487;-82
2023/09/30 09:08:35;;;;;;;15.23;14.20;;;23.80;99.90;;;;;;4807016;29;20983;-82
2023/09/30 09:11:06;;;;;;;14.93;13.90;;;24.20;99.90;;;;;;4791865;29;20463;-81
2023/09/30 09:13:50;;;;;;;15.15;14.25;;;24.40;99.90;;;;;;4793341;29;20472;-84
2023/09/30 09:16:19;;;;;;;14.90;14.20;;;24.80;99.90;;;;;;4793156;29;20566;-82
2023/09/30 09:18:48;;;;;;;15.10;13.97;;;25.10;99.90;;;;;;4793435;29;20542;-84
2023/09/30 09:21:20;;;;;;;14.73;13.83;;;25.50;99.90;;;;;;4805031;29;20529;-82
2023/09/30 09:23:50;;;;;;;12.87;12.27;;;25.80;99.90;;;;;;4792946;29;20471;-81
2023/09/30 09:26:29;;;;;;;13.70;12.90;;;26.00;99.90;;;;;;4793758;29;21040;-82
2023/09/30 09:28:58;;;;;;;13.67;12.93;;;26.40;99.90;;;;;;4787419;29;20486;-80
2023/09/30 09:31:28;;;;;;;14.40;13.43;;;26.60;99.90;;;;;;4792104;29;20472;-81
2023/09/30 09:33:57;;;;;;;13.57;12.97;;;26.70;99.90;;;;;;4790453;29;20819;-80
2023/09/30 09:36:41;;;;;;;14.63;13.73;;;26.80;99.90;;;;;;4792314;29;20470;-81
2023/09/30 09:39:13;;;;;;;14.10;13.30;;;26.80;99.90;;;;;;4793729;29;20474;-81
2023/09/30 09:41:52;;;;;;;15.27;14.37;;;27.10;99.90;;;;;;4795727;29;20508;-81
2023/09/30 09:44:21;;;;;;;14.50;13.80;;;27.10;99.90;;;;;;4793673;29;20599;-84
2023/09/30 09:46:50;;;;;;;14.07;12.83;;;27.10;99.90;;;;;;4795223;29;20479;-78
2023/09/30 09:49:19;;;;;;;14.40;13.50;;;26.90;99.90;;;;;;4792751;29;20495;-80
2023/09/30 09:51:48;;;;;;;13.80;13.10;;;26.20;99.90;;;;;;4794253;29;20467;-84
2023/09/30 09:54:17;;;;;;;12.50;11.80;;;25.90;99.90;;;;;;4792686;29;20491;-81
2023/09/30 09:56:46;;;;;;;12.43;11.83;;;25.40;99.90;;;;;;4794278;29;20460;-80
2023/09/30 09:59:16;;;;;;;14.67;13.77;;;25.30;99.90;;;;;;4791741;29;20456;-80
2023/09/30 10:01:45;;;;;;;13.37;12.87;;;25.20;99.90;;;;;;4796067;29;20474;-84
2023/09/30 10:04:15;;;;;;;12.23;11.53;;;25.00;99.90;;;;;;4799519;29;20519;-82
2023/09/30 10:06:48;;;;;;;13.00;12.20;;;24.80;99.90;;;;;;4796456;29;20460;-82
2023/09/30 10:09:19;;;;;;;12.77;11.97;;;24.90;99.90;;;;;;4794862;29;20896;-81
2023/09/30 10:11:48;;;;;;;12.93;12.33;;;25.00;99.90;;;;;;4794124;29;20558;-80
2023/09/30 10:14:35;;;;;;;13.70;12.90;;;25.00;99.90;;;;;;4790376;29;20504;-81
2023/09/30 10:17:04;;;;;;;13.87;13.07;;;25.10;99.90;;;;;;4808275;29;20888;-81
2023/09/30 10:19:34;;;;;;;13.83;13.00;;;25.40;99.90;;;;;;4792931;29;20499;-82
2023/09/30 10:22:22;;;;;;;13.77;12.77;;;25.30;99.90;;;;;;4793805;29;20456;-82
2023/09/30 10:24:52;;;;;;;13.53;12.63;;;25.40;99.90;;;;;;4793018;29;20484;-81
2023/09/30 10:27:37;;;;;;;13.73;12.77;;;25.40;99.90;;;;;;4790146;29;20468;-80
2023/09/30 10:30:13;;;;;;;13.13;12.23;;;25.50;99.90;;;;;;4791980;29;21026;-81
2023/09/30 10:33:11;;;;;;;12.53;11.73;;;25.70;99.90;;;;;;4803795;29;20476;-81
2023/09/30 10:35:48;;;;;;;14.30;13.30;;;25.70;99.90;;;;;;4791384;29;20514;-81
2023/09/30 10:38:40;;;;;;;13.10;12.20;;;25.90;99.90;;;;;;4791524;29;20464;-81
2023/09/30 10:41:09;;;;;;;13.60;12.73;;;25.90;99.90;;;;;;4792517;29;20460;-82
2023/09/30 10:43:39;;;;;;;13.65;12.65;;;26.10;99.90;;;;;;4794747;29;20462;-87
2023/09/30 10:46:34;;;;;;;13.90;12.90;;;26.10;99.90;;;;;;4798941;29;20235;-86
2023/09/30 10:49:18;;;;;;;13.93;12.90;;;26.10;99.90;;;;;;4796050;29;21057;-82
2023/09/30 10:51:46;;;;;;;13.33;12.47;;;26.00;99.90;;;;;;4796504;29;20468;-80
2023/09/30 10:54:15;;;;;;;13.10;12.37;;;25.90;99.90;;;;;;4791595;29;20526;-81
2023/09/30 10:56:43;;;;;;;14.80;13.60;;;26.10;99.90;;;;;;4794404;29;21104;-80
2023/09/30 10:59:11;;;;;;;13.07;12.27;;;26.00;99.90;;;;;;4793113;29;20463;-81
2023/09/30 11:01:41;;;;;;;14.03;12.83;;;26.20;99.90;;;;;;4794154;29;20487;-80
2023/09/30 11:04:11;;;;;;;14.93;13.93;;;26.30;99.90;;;;;;4792346;29;20476;-80
2023/09/30 11:06:41;;;;;;;15.17;13.90;;;26.30;99.90;;;;;;4796248;29;20962;-81
2023/09/30 11:09:13;;;;;;;14.63;13.67;;;26.50;99.90;;;;;;4794605;29;20731;-78
2023/09/30 11:11:43;;;;;;;13.73;12.63;;;26.70;99.90;;;;;;4795861;29;20480;-80
2023/09/30 11:14:19;;;;;;;13.30;12.40;;;26.80;99.90;;;;;;4795715;29;20947;-80
2023/09/30 11:16:49;;;;;;;13.00;12.10;;;26.40;99.90;;;;;;4801894;29;20552;-83
2023/09/30 11:19:20;;;;;;;12.27;11.30;;;26.10;99.90;;;;;;4800995;29;20643;-85
2023/09/30 11:21:50;;;;;;;13.20;12.20;;;26.00;99.90;;;;;;4804882;29;20500;-84
2023/09/30 11:24:19;;;;;;;11.77;10.93;;;25.80;99.90;;;;;;4801837;29;20836;-85
2023/09/30 11:26:47;;;;;;;12.40;11.60;;;25.80;99.90;;;;;;4803186;29;20463;-84
2023/09/30 11:29:17;;;;;;;13.50;12.60;;;25.80;99.90;;;;;;4799822;29;20506;-84
2023/09/30 11:31:48;;;;;;;12.50;11.60;;;25.80;99.90;;;;;;4801758;29;20465;-85
2023/09/30 11:34:18;;;;;;;12.40;11.50;;;25.80;99.90;;;;;;4796521;29;20496;-85
2023/09/30 11:36:51;;;;;;;13.03;11.97;;;25.80;99.90;;;;;;4805368;29;20532;-84
2023/09/30 11:39:44;;;;;;;12.17;11.30;;;25.70;99.90;;;;;;4799756;29;20455;-85
2023/09/30 11:42:23;;;;;;;11.80;10.90;;;25.80;99.90;;;;;;4796884;29;20475;-85
2023/09/30 11:45:19;;;;;;;12.00;11.20;;;25.80;99.90;;;;;;4803230;29;20498;-84
2023/09/30 11:48:03;;;;;;;12.40;11.37;;;25.80;99.90;;;;;;4798393;29;20503;-87
2023/09/30 11:50:47;;;;;;;12.10;11.30;;;25.80;99.90;;;;;;4796508;29;20494;-86
2023/09/30 11:53:20;;;;;;;12.90;11.90;;;25.60;99.90;;;;;;4801513;29;20823;-87
2023/09/30 11:55:49;;;;;;;11.10;10.40;;;25.50;99.90;;;;;;4811995;29;20491;-87
2023/09/30 11:58:19;;;;;;;11.67;10.57;;;25.50;99.90;;;;;;4799280;29;21286;-87
2023/09/30 12:00:50;;;;;;;10.50;9.70;;;25.40;99.90;;;;;;4816271;29;20955;-86
2023/09/30 12:03:21;;;;;;;11.33;10.40;;;25.30;99.90;;;;;;4802180;29;20469;-86
2023/09/30 12:05:49;;;;;;;12.73;11.43;;;25.10;99.90;;;;;;4813731;29;20928;-85
2023/09/30 12:08:19;;;;;;;11.07;10.10;;;25.00;99.90;;;;;;4812654;29;20511;-83
2023/09/30 12:10:47;;;;;;;11.45;10.55;;;24.90;99.90;;;;;;4816750;29;21117;-84
2023/09/30 12:13:27;;;;;;;12.03;11.00;;;24.80;99.90;;;;;;4803934;29;20210;-87
2023/09/30 12:15:57;;;;;;;10.30;9.60;;;24.70;99.90;;;;;;4808961;29;20526;-85
2023/09/30 12:18:27;;;;;;;10.57;9.77;;;24.50;99.90;;;;;;4803388;29;20455;-82
2023/09/30 12:20:56;;;;;;;10.50;9.70;;;24.30;99.90;;;;;;4803355;29;20483;-83
2023/09/30 12:23:24;;;;;;;10.90;10.20;;;24.20;99.90;;;;;;4803381;29;21217;-82
2023/09/30 12:25:54;;;;;;;11.70;10.80;;;24.20;99.90;;;;;;4805895;29;21185;-82
2023/09/30 12:28:40;;;;;;;11.20;10.30;;;24.30;99.90;;;;;;4805883;29;20536;-86
2023/09/30 12:31:10;;;;;;;10.97;10.23;;;24.30;99.90;;;;;;4804109;29;20579;-84
2023/09/30 12:34:55;;;;;;;12.03;10.93;;;24.40;99.90;;;;;;4803749;29;20494;-83
2023/09/30 12:40:17;;;;;;;10.90;10.20;;;24.20;99.90;;;;;;4800850;29;20551;-85
2023/09/30 12:43:06;;;;;;;11.80;10.90;;;24.30;99.90;;;;;;4804994;29;20210;-83
2023/09/30 12:45:34;;;;;;;11.30;10.13;;;24.50;99.90;;;;;;4799828;29;20604;-81
2023/09/30 12:48:02;;;;;;;11.17;10.40;;;24.50;99.90;;;;;;4797119;29;20472;-84
2023/09/30 12:50:32;;;;;;;11.73;10.83;;;24.40;99.90;;;;;;4806853;29;20567;-85
2023/09/30 12:53:00;;;;;;;11.60;10.80;;;24.40;99.90;;;;;;4796885;29;20487;-83
2023/09/30 12:55:28;;;;;;;10.97;10.17;;;24.30;99.90;;;;;;4806385;29;21098;-83
2023/09/30 12:57:56;;;;;;;11.20;10.40;;;24.20;99.90;;;;;;4796896;29;20466;-83
2023/09/30 13:00:32;;;;;;;11.27;10.47;;;24.20;99.90;;;;;;4800616;29;20465;-82
2023/09/30 13:03:49;;;;;;;11.70;10.70;;;24.10;99.90;;;;;;4800946;29;20487;-82
2023/09/30 13:07:05;;;;;;;11.07;10.23;;;24.00;99.90;;;;;;4796402;29;20566;-83
2023/09/30 13:09:56;;;;;;;10.83;10.23;;;23.90;99.90;;;;;;4800097;29;20475;-83
2023/09/30 13:12:25;;;;;;;11.83;10.90;;;23.90;99.90;;;;;;4795076;29;20531;-83
2023/09/30 13:14:55;;;;;;;11.63;10.83;;;23.80;99.90;;;;;;4796478;29;20556;-83